Time;durP1;ratioP1;P1;durP2;ratioP2;P2;SDS_P1;SDS_P2;PMS_P1;PMS_P2;Temp;Humidity;BMP_temperature;BMP_pressure;BME280_temperature;BME280_humidity;BME280_pressure;Samples;Min_cycle;Max_cycle;Signal;HPM_P1;HPM_P2
2023/07/14 00:01:55;;;;;;;7.90;5.03;;;14.40;99.90;;;;;;5079999;27;20026;-81
2023/07/14 00:04:27;;;;;;;6.88;5.45;;;14.40;99.90;;;;;;5084843;27;20379;-81
2023/07/14 00:06:53;;;;;;;9.48;4.50;;;14.40;99.90;;;;;;5094576;27;20690;-81
2023/07/14 00:09:25;;;;;;;7.22;5.28;;;14.30;99.90;;;;;;5080721;27;20516;-81
2023/07/14 00:11:51;;;;;;;6.55;4.63;;;14.30;99.90;;;;;;5097668;27;20495;-81
2023/07/14 00:14:17;;;;;;;7.15;5.13;;;14.30;99.90;;;;;;5099537;27;20059;-81
2023/07/14 00:16:44;;;;;;;9.32;5.40;;;14.30;99.90;;;;;;5080627;28;20062;-81
2023/07/14 00:19:17;;;;;;;6.88;5.13;;;14.30;99.90;;;;;;5097612;27;20077;-81
2023/07/14 00:21:44;;;;;;;7.63;5.38;;;14.20;99.90;;;;;;5097044;27;20084;-81
2023/07/14 00:24:15;;;;;;;11.35;6.13;;;14.20;99.90;;;;;;5100337;27;20195;-81
2023/07/14 00:26:43;;;;;;;9.05;5.32;;;14.20;99.90;;;;;;5083262;27;20119;-81
2023/07/14 00:29:37;;;;;;;8.35;5.82;;;14.20;99.90;;;;;;5083070;28;20043;-81
2023/07/14 00:32:22;;;;;;;8.68;6.05;;;14.20;99.90;;;;;;5091286;27;20044;-82
2023/07/14 00:34:48;;;;;;;9.02;6.38;;;14.30;99.90;;;;;;5113286;27;20111;-81
2023/07/14 00:37:14;;;;;;;9.30;6.20;;;14.30;99.90;;;;;;5094083;27;20046;-81
2023/07/14 00:39:40;;;;;;;11.02;6.57;;;14.30;99.90;;;;;;5074942;27;20035;-81
2023/07/14 00:42:12;;;;;;;10.40;7.75;;;14.30;99.90;;;;;;5082447;27;20079;-81
2023/07/14 00:44:38;;;;;;;12.13;6.65;;;14.30;99.90;;;;;;5100093;27;20529;-81
2023/07/14 00:47:23;;;;;;;9.07;6.60;;;14.30;99.90;;;;;;5101273;27;20114;-81
2023/07/14 00:49:51;;;;;;;8.85;7.63;;;14.30;99.90;;;;;;5095571;27;20479;-81
2023/07/14 00:52:24;;;;;;;10.73;7.28;;;14.30;99.90;;;;;;5079881;28;20502;-81
2023/07/14 00:54:51;;;;;;;11.48;7.25;;;14.30;99.90;;;;;;5099153;27;20519;-81
2023/07/14 00:57:18;;;;;;;11.90;8.05;;;14.30;99.90;;;;;;5104065;27;20031;-81
2023/07/14 00:59:44;;;;;;;10.90;7.63;;;14.40;99.90;;;;;;5097979;28;20047;-81
2023/07/14 01:02:20;;;;;;;11.52;7.82;;;14.30;99.90;;;;;;5081517;28;20036;-81
2023/07/14 01:05:22;;;;;;;9.70;7.47;;;14.40;99.90;;;;;;5101378;28;20035;-81
2023/07/14 01:07:48;;;;;;;12.95;7.53;;;14.30;99.90;;;;;;5053318;28;20117;-81
2023/07/14 01:10:18;;;;;;;9.55;7.43;;;14.30;99.90;;;;;;5093713;28;20422;-81
2023/07/14 01:12:53;;;;;;;12.57;7.80;;;14.30;99.90;;;;;;5098820;28;20081;-81
2023/07/14 01:15:19;;;;;;;9.70;7.55;;;14.30;99.90;;;;;;5080776;28;20047;-81
2023/07/14 01:17:47;;;;;;;11.90;8.30;;;14.30;99.90;;;;;;5099755;28;20452;-81
2023/07/14 01:20:14;;;;;;;10.93;8.10;;;14.30;99.90;;;;;;5079608;28;20055;-81
2023/07/14 01:22:46;;;;;;;12.80;8.25;;;14.30;99.90;;;;;;5090648;28;20038;-81
2023/07/14 01:25:20;;;;;;;11.40;8.80;;;14.20;99.90;;;;;;5097014;28;20064;-81
2023/07/14 01:27:47;;;;;;;12.23;8.70;;;14.30;99.90;;;;;;5092960;28;20093;-81
2023/07/14 01:30:14;;;;;;;14.88;9.55;;;14.30;99.90;;;;;;5100671;28;20056;-81
2023/07/14 01:32:45;;;;;;;11.48;9.05;;;14.20;99.90;;;;;;5098441;28;20185;-81
2023/07/14 01:35:12;;;;;;;12.68;8.80;;;14.20;99.90;;;;;;5082105;28;20460;-81
2023/07/14 01:37:39;;;;;;;13.23;8.82;;;14.20;99.90;;;;;;5076711;28;20076;-81
2023/07/14 01:40:12;;;;;;;10.88;8.02;;;14.20;99.90;;;;;;5099403;28;20027;-81
2023/07/14 01:42:49;;;;;;;10.70;8.55;;;14.20;99.90;;;;;;5095152;28;20409;-81
2023/07/14 01:45:20;;;;;;;13.35;8.52;;;14.20;99.90;;;;;;5096031;28;20113;-81
2023/07/14 01:47:50;;;;;;;14.18;8.95;;;14.20;99.90;;;;;;5096222;28;20447;-81
2023/07/14 01:50:30;;;;;;;12.77;8.93;;;14.10;99.90;;;;;;5093674;28;20036;-81
2023/07/14 01:53:02;;;;;;;12.45;8.70;;;14.10;99.90;;;;;;5097683;28;20067;-81
2023/07/14 01:55:34;;;;;;;13.25;9.57;;;14.10;99.90;;;;;;5095547;28;20546;-81
2023/07/14 01:58:07;;;;;;;12.10;9.52;;;14.10;99.90;;;;;;5082402;28;20032;-81
2023/07/14 02:00:35;;;;;;;18.65;10.48;;;14.00;99.90;;;;;;5097187;28;20501;-81
2023/07/14 02:03:04;;;;;;;13.07;9.25;;;14.00;99.90;;;;;;5078603;27;20040;-81
2023/07/14 02:05:34;;;;;;;13.80;9.32;;;14.00;99.90;;;;;;5104027;27;20447;-81
2023/07/14 02:08:05;;;;;;;12.10;9.02;;;14.00;99.90;;;;;;5096411;27;20550;-81
2023/07/14 02:10:34;;;;;;;12.25;9.05;;;14.00;99.90;;;;;;5106952;27;20394;-81
2023/07/14 02:13:02;;;;;;;14.48;9.02;;;13.90;99.90;;;;;;5083566;27;20232;-81
2023/07/14 02:15:32;;;;;;;13.55;9.02;;;13.90;99.90;;;;;;5095775;27;20039;-81
2023/07/14 02:17:59;;;;;;;15.98;10.25;;;13.90;99.90;;;;;;5102488;27;20043;-81
2023/07/14 02:20:38;;;;;;;13.10;9.93;;;13.90;99.90;;;;;;5105814;27;20075;-81
2023/07/14 02:23:08;;;;;;;15.85;10.35;;;13.90;99.90;;;;;;5098274;27;20035;-81
2023/07/14 02:25:39;;;;;;;13.82;10.05;;;13.80;99.90;;;;;;5099375;27;20386;-81
2023/07/14 02:28:05;;;;;;;12.65;9.55;;;13.80;99.90;;;;;;5086496;28;20049;-81
2023/07/14 02:30:33;;;;;;;18.10;10.15;;;13.80;99.90;;;;;;5086298;27;20114;-81
2023/07/14 02:33:09;;;;;;;14.60;10.50;;;13.80;99.90;;;;;;5086804;27;20035;-80
2023/07/14 02:36:01;;;;;;;14.95;9.77;;;13.80;99.90;;;;;;5097012;27;20227;-81
2023/07/14 02:38:26;;;;;;;15.48;10.23;;;13.80;99.90;;;;;;5087745;27;20039;-81
2023/07/14 02:41:00;;;;;;;12.25;10.10;;;13.80;99.90;;;;;;5107375;27;20332;-81
2023/07/14 02:43:26;;;;;;;15.40;10.90;;;13.70;99.90;;;;;;5089594;27;20060;-81
2023/07/14 02:45:56;;;;;;;13.13;10.35;;;13.80;99.90;;;;;;5085438;28;20484;-81
2023/07/14 02:48:30;;;;;;;16.63;10.60;;;13.70;99.90;;;;;;5096497;27;20048;-80
2023/07/14 02:50:57;;;;;;;16.80;10.80;;;13.70;99.90;;;;;;5092704;27;20719;-81
2023/07/14 02:53:23;;;;;;;15.27;10.52;;;13.70;99.90;;;;;;5095915;27;20043;-81
2023/07/14 02:55:48;;;;;;;15.15;11.50;;;13.70;99.90;;;;;;5080978;28;20488;-81
2023/07/14 02:58:14;;;;;;;14.57;10.23;;;13.60;99.90;;;;;;5098194;27;20127;-81
2023/07/14 03:00:40;;;;;;;14.13;10.23;;;13.60;99.90;;;;;;5082002;27;20048;-81
2023/07/14 03:03:06;;;;;;;15.23;10.63;;;13.60;99.90;;;;;;5084206;27;20032;-81
2023/07/14 03:05:31;;;;;;;14.88;10.18;;;13.50;99.90;;;;;;5104579;27;20047;-81
2023/07/14 03:07:57;;;;;;;13.63;10.10;;;13.60;99.90;;;;;;5081685;27;20419;-81
2023/07/14 03:10:23;;;;;;;15.73;10.65;;;13.60;99.90;;;;;;5081870;28;20045;-81
2023/07/14 03:12:49;;;;;;;15.43;10.50;;;13.60;99.90;;;;;;5102961;27;20070;-81
2023/07/14 03:15:14;;;;;;;14.00;9.65;;;13.60;99.90;;;;;;5101164;27;21051;-81
2023/07/14 03:17:40;;;;;;;16.55;9.52;;;13.60;99.90;;;;;;5078714;27;20089;-81
2023/07/14 03:20:10;;;;;;;15.43;9.93;;;13.60;99.90;;;;;;5098970;27;20035;-81
2023/07/14 03:22:36;;;;;;;14.40;9.18;;;13.60;99.90;;;;;;5096883;27;20576;-81
2023/07/14 03:25:02;;;;;;;14.18;9.30;;;13.60;99.90;;;;;;5097356;27;20142;-81
2023/07/14 03:27:28;;;;;;;14.35;8.90;;;13.60;99.90;;;;;;5104297;27;20039;-81
2023/07/14 03:29:54;;;;;;;15.73;9.50;;;13.60;99.90;;;;;;5098991;27;20658;-81
2023/07/14 03:32:20;;;;;;;14.75;9.45;;;13.60;99.90;;;;;;5118468;27;20458;-81
2023/07/14 03:34:46;;;;;;;15.15;8.82;;;13.60;99.90;;;;;;5100405;27;20592;-81
2023/07/14 03:37:12;;;;;;;12.45;8.38;;;13.60;99.90;;;;;;5093265;27;20105;-81
2023/07/14 03:39:38;;;;;;;10.80;8.07;;;13.60;99.90;;;;;;5093926;27;20035;-81
2023/07/14 03:42:04;;;;;;;14.57;9.75;;;13.60;99.90;;;;;;5103157;27;20035;-81
2023/07/14 03:44:32;;;;;;;11.30;8.82;;;13.60;99.90;;;;;;5119432;27;20338;-81
2023/07/14 03:46:58;;;;;;;12.90;7.97;;;13.60;99.90;;;;;;5079306;27;20313;-81
2023/07/14 03:49:24;;;;;;;12.88;8.40;;;13.70;99.90;;;;;;5088564;27;20127;-81
2023/07/14 03:51:52;;;;;;;13.02;7.95;;;13.70;99.90;;;;;;5098145;27;20055;-81
2023/07/14 03:54:18;;;;;;;14.32;8.13;;;13.70;99.90;;;;;;5086071;27;20046;-81
2023/07/14 03:56:44;;;;;;;13.77;8.50;;;13.70;99.90;;;;;;5108949;27;20070;-81
2023/07/14 03:59:13;;;;;;;10.00;7.25;;;13.80;99.90;;;;;;5084146;27;20062;-81
2023/07/14 04:01:42;;;;;;;13.63;8.20;;;13.80;99.90;;;;;;5112277;27;20043;-81
2023/07/14 04:04:16;;;;;;;10.35;7.82;;;13.80;99.90;;;;;;5083790;27;20061;-81
2023/07/14 04:06:43;;;;;;;12.95;8.32;;;13.80;99.90;;;;;;5087760;27;21201;-81
2023/07/14 04:09:09;;;;;;;10.98;7.50;;;13.80;99.90;;;;;;5087008;27;20049;-82
2023/07/14 04:11:38;;;;;;;11.05;7.28;;;13.90;99.90;;;;;;5102258;27;20043;-82
2023/07/14 04:14:07;;;;;;;13.27;7.55;;;13.90;99.90;;;;;;5086185;27;20043;-82
2023/07/14 04:16:37;;;;;;;11.68;7.57;;;14.00;99.90;;;;;;5079159;27;20043;-82
2023/07/14 04:19:04;;;;;;;11.52;7.28;;;14.00;99.90;;;;;;5088201;27;20057;-82
2023/07/14 04:21:31;;;;;;;13.18;7.65;;;14.00;99.90;;;;;;5094936;27;20450;-82
2023/07/14 04:23:57;;;;;;;11.93;8.07;;;14.00;99.90;;;;;;5094436;27;20146;-82
2023/07/14 04:26:25;;;;;;;9.65;7.22;;;14.00;99.90;;;;;;5102395;27;20045;-82
2023/07/14 04:28:50;;;;;;;10.98;7.15;;;14.00;99.90;;;;;;5086398;27;20315;-82
2023/07/14 04:31:17;;;;;;;13.40;7.93;;;14.00;99.90;;;;;;5106763;27;20281;-82
2023/07/14 04:33:44;;;;;;;13.45;7.60;;;14.10;99.90;;;;;;5082289;27;20423;-82
2023/07/14 04:36:11;;;;;;;15.60;8.23;;;14.10;99.90;;;;;;5106162;27;20042;-82
2023/07/14 04:38:36;;;;;;;10.80;7.72;;;14.10;99.90;;;;;;5095028;27;20031;-82
2023/07/14 04:41:02;;;;;;;11.10;8.20;;;14.20;99.90;;;;;;5093727;27;20248;-82
2023/07/14 04:43:28;;;;;;;13.02;8.23;;;14.30;99.90;;;;;;5080971;28;20052;-82
2023/07/14 04:45:55;;;;;;;10.98;7.72;;;14.30;99.90;;;;;;5100153;27;20518;-83
2023/07/14 04:48:24;;;;;;;13.52;7.82;;;14.30;99.90;;;;;;5085043;28;20248;-82
2023/07/14 04:50:51;;;;;;;14.38;8.35;;;14.40;99.90;;;;;;5086947;28;20046;-82
2023/07/14 04:53:19;;;;;;;13.32;7.65;;;14.50;99.90;;;;;;5080046;27;20537;-82
2023/07/14 04:55:46;;;;;;;11.18;7.28;;;14.50;99.90;;;;;;5084067;28;20040;-82
2023/07/14 04:58:16;;;;;;;13.35;8.32;;;14.60;99.90;;;;;;5096745;28;20119;-82
2023/07/14 05:00:44;;;;;;;9.77;7.57;;;14.70;99.90;;;;;;5087270;28;20168;-82
2023/07/14 05:03:10;;;;;;;11.95;7.70;;;14.70;99.90;;;;;;5085342;28;20394;-82
2023/07/14 05:05:36;;;;;;;13.57;7.32;;;14.70;99.90;;;;;;5095841;28;20035;-82
2023/07/14 05:08:02;;;;;;;13.95;7.65;;;14.80;99.90;;;;;;5096262;28;20053;-82
2023/07/14 05:10:32;;;;;;;9.88;7.57;;;15.00;99.90;;;;;;5093951;28;20043;-82
2023/07/14 05:12:58;;;;;;;10.82;7.65;;;15.00;99.90;;;;;;5094491;28;20035;-82
2023/07/14 05:15:25;;;;;;;11.65;7.50;;;15.10;99.90;;;;;;5092020;28;20962;-82
2023/07/14 05:17:51;;;;;;;10.70;7.15;;;15.10;99.90;;;;;;5077498;28;20482;-82
2023/07/14 05:20:19;;;;;;;11.32;7.47;;;15.20;99.90;;;;;;5074575;28;20035;-82
2023/07/14 05:22:50;;;;;;;10.57;7.13;;;15.20;99.90;;;;;;5092115;28;20173;-82
2023/07/14 05:25:16;;;;;;;9.68;6.47;;;15.30;99.90;;;;;;5092438;28;20565;-82
2023/07/14 05:27:46;;;;;;;9.95;6.22;;;15.50;99.90;;;;;;5093303;28;20038;-82
2023/07/14 05:30:16;;;;;;;10.23;6.53;;;15.60;99.90;;;;;;5073962;28;20251;-82
2023/07/14 05:32:43;;;;;;;10.30;6.35;;;15.60;99.90;;;;;;5090447;28;20051;-82
2023/07/14 05:35:11;;;;;;;9.63;5.55;;;15.60;99.90;;;;;;5092123;28;20041;-82
2023/07/14 05:37:37;;;;;;;11.57;6.53;;;15.70;99.90;;;;;;5100620;27;20126;-82
2023/07/14 05:40:07;;;;;;;9.98;5.95;;;15.80;99.90;;;;;;5105131;27;20067;-82
2023/07/14 05:42:33;;;;;;;10.43;5.75;;;15.80;99.90;;;;;;5099879;27;20064;-82
2023/07/14 05:44:59;;;;;;;9.80;5.78;;;15.90;99.90;;;;;;5088884;27;20046;-82
2023/07/14 05:47:25;;;;;;;9.23;5.80;;;16.00;99.90;;;;;;5092231;27;20032;-82
2023/07/14 05:49:51;;;;;;;11.98;6.55;;;16.10;99.90;;;;;;5106624;27;20106;-82
2023/07/14 05:52:17;;;;;;;12.30;6.28;;;16.10;99.90;;;;;;5101492;27;20127;-82
2023/07/14 05:54:44;;;;;;;8.93;5.45;;;16.30;99.90;;;;;;5119296;27;20115;-82
2023/07/14 05:57:10;;;;;;;8.65;5.72;;;16.30;99.90;;;;;;5112082;27;20055;-82
2023/07/14 05:59:37;;;;;;;7.70;5.45;;;16.40;99.90;;;;;;5086192;27;20458;-82
2023/07/14 06:02:03;;;;;;;8.68;4.97;;;16.60;99.90;;;;;;5108534;27;20701;-82
2023/07/14 06:04:30;;;;;;;10.38;5.47;;;16.60;99.90;;;;;;5101766;27;20063;-82
2023/07/14 06:06:56;;;;;;;9.15;5.18;;;16.70;99.90;;;;;;5088571;27;20036;-82
2023/07/14 06:09:22;;;;;;;9.02;5.15;;;16.80;99.90;;;;;;5094560;27;20032;-82
2023/07/14 06:11:48;;;;;;;7.43;4.78;;;16.90;99.90;;;;;;5107309;27;20552;-82
2023/07/14 06:14:13;;;;;;;8.73;5.35;;;17.00;99.90;;;;;;5105503;27;20039;-82
2023/07/14 06:16:42;;;;;;;9.90;5.70;;;17.10;99.90;;;;;;5113230;27;20083;-82
2023/07/14 06:19:07;;;;;;;8.30;5.07;;;17.20;99.90;;;;;;5089118;27;20281;-81
2023/07/14 06:21:33;;;;;;;11.68;5.55;;;17.30;99.90;;;;;;5108294;27;20291;-81
2023/07/14 06:23:59;;;;;;;7.82;5.43;;;17.40;99.90;;;;;;5099697;27;20063;-82
2023/07/14 06:26:25;;;;;;;10.57;5.03;;;17.40;99.90;;;;;;5100255;27;20066;-82
2023/07/14 06:28:51;;;;;;;8.50;5.20;;;17.60;99.90;;;;;;5102048;27;20120;-82
2023/07/14 06:31:17;;;;;;;9.90;5.32;;;17.80;99.90;;;;;;5086105;27;20170;-82
2023/07/14 06:33:42;;;;;;;12.75;5.20;;;17.80;99.90;;;;;;5086569;27;20398;-82
2023/07/14 06:36:11;;;;;;;6.72;4.63;;;17.90;99.90;;;;;;5107874;27;20062;-82
2023/07/14 06:38:37;;;;;;;8.80;5.03;;;17.90;99.90;;;;;;5082349;27;20130;-82
2023/07/14 06:41:07;;;;;;;10.68;4.97;;;17.90;99.90;;;;;;5104297;27;20110;-83
2023/07/14 06:43:33;;;;;;;10.10;5.00;;;17.90;99.90;;;;;;5088626;27;20188;-82
2023/07/14 06:46:05;;;;;;;9.25;4.90;;;18.10;99.90;;;;;;5105869;27;20532;-82
2023/07/14 06:48:31;;;;;;;8.38;4.82;;;18.20;99.90;;;;;;5086466;27;20446;-82
2023/07/14 06:50:56;;;;;;;8.98;4.57;;;18.20;99.90;;;;;;5108147;27;20048;-82
2023/07/14 06:53:24;;;;;;;12.80;5.32;;;18.30;99.90;;;;;;5099988;27;20276;-82
2023/07/14 06:55:50;;;;;;;10.68;4.43;;;18.40;99.90;;;;;;5110466;27;20454;-83
2023/07/14 06:58:25;;;;;;;7.07;4.85;;;18.50;99.90;;;;;;5102392;27;20124;-82
2023/07/14 07:00:51;;;;;;;10.32;4.82;;;18.50;99.90;;;;;;5103986;27;20027;-82
2023/07/14 07:03:17;;;;;;;8.30;4.40;;;18.60;99.90;;;;;;5086156;27;20088;-83
2023/07/14 07:05:44;;;;;;;8.65;4.72;;;18.70;99.90;;;;;;5085127;27;20594;-82
2023/07/14 07:08:14;;;;;;;7.57;4.47;;;18.70;99.90;;;;;;5110437;27;20038;-82
2023/07/14 07:10:42;;;;;;;6.75;4.25;;;18.80;99.90;;;;;;5097826;27;20035;-82
2023/07/14 07:13:08;;;;;;;5.95;4.20;;;18.90;99.90;;;;;;5096551;27;20039;-82
2023/07/14 07:15:34;;;;;;;7.55;4.20;;;18.90;99.90;;;;;;5100508;27;20039;-82
2023/07/14 07:18:03;;;;;;;4.70;3.20;;;19.00;99.90;;;;;;5086616;27;20207;-82
2023/07/14 07:20:29;;;;;;;7.10;3.40;;;19.00;99.90;;;;;;5108528;27;20118;-82
2023/07/14 07:22:55;;;;;;;7.43;3.40;;;19.10;99.90;;;;;;5102159;27;20104;-82
2023/07/14 07:25:21;;;;;;;6.60;3.63;;;19.20;99.90;;;;;;5101592;27;20576;-82
2023/07/14 07:27:46;;;;;;;5.78;3.40;;;19.20;99.90;;;;;;5104127;27;20042;-82
2023/07/14 07:30:12;;;;;;;3.58;2.63;;;19.40;99.90;;;;;;5099985;27;20085;-82
2023/07/14 07:32:40;;;;;;;6.07;2.67;;;19.40;99.90;;;;;;5092864;27;20447;-82
2023/07/14 07:35:06;;;;;;;3.90;2.80;;;19.40;99.90;;;;;;5097926;27;20054;-82
2023/07/14 07:37:32;;;;;;;6.35;3.00;;;19.70;99.90;;;;;;5100644;27;20146;-82
2023/07/14 07:39:59;;;;;;;6.30;3.50;;;19.80;99.90;;;;;;5079198;27;20110;-82
2023/07/14 07:42:26;;;;;;;6.70;3.58;;;19.80;99.90;;;;;;5111960;27;20405;-82
2023/07/14 07:44:52;;;;;;;4.60;3.20;;;19.90;99.90;;;;;;5101974;27;20036;-82
2023/07/14 07:47:18;;;;;;;6.20;3.80;;;19.90;99.90;;;;;;5098456;27;20579;-82
2023/07/14 07:49:46;;;;;;;5.68;3.20;;;20.00;99.90;;;;;;5126431;27;20038;-82
2023/07/14 07:52:13;;;;;;;7.55;3.25;;;19.90;99.90;;;;;;5117246;27;20116;-82
2023/07/14 07:54:39;;;;;;;5.97;3.85;;;20.00;99.90;;;;;;5112429;27;20647;-82
2023/07/14 07:57:07;;;;;;;6.38;3.83;;;19.90;99.90;;;;;;5090604;27;20036;-82
2023/07/14 07:59:33;;;;;;;5.75;3.78;;;20.00;99.90;;;;;;5095409;27;20040;-82
2023/07/14 08:02:03;;;;;;;8.90;4.05;;;20.30;99.90;;;;;;5097096;27;20047;-82
2023/07/14 08:04:28;;;;;;;7.30;4.07;;;20.40;99.90;;;;;;5094587;27;20042;-82
2023/07/14 08:06:54;;;;;;;7.85;3.90;;;20.50;99.90;;;;;;5089655;27;20041;-82
2023/07/14 08:09:21;;;;;;;10.57;4.20;;;20.50;99.90;;;;;;5108605;27;20064;-82
2023/07/14 08:11:47;;;;;;;6.63;3.70;;;20.60;99.90;;;;;;5114217;27;20474;-82
2023/07/14 08:14:18;;;;;;;5.88;3.95;;;20.50;99.90;;;;;;5113173;27;20066;-82
2023/07/14 08:16:45;;;;;;;9.93;4.55;;;20.40;99.90;;;;;;5111368;27;20061;-82
2023/07/14 08:19:13;;;;;;;6.63;3.88;;;20.60;99.90;;;;;;5119778;27;20034;-82
2023/07/14 08:21:39;;;;;;;5.32;3.35;;;20.20;99.90;;;;;;5099515;27;20502;-82
2023/07/14 08:24:09;;;;;;;6.20;3.33;;;20.10;99.90;;;;;;5099087;27;20042;-82
2023/07/14 08:26:36;;;;;;;5.53;3.10;;;20.10;99.90;;;;;;5090458;27;20042;-83
2023/07/14 08:29:03;;;;;;;5.50;3.40;;;20.50;99.90;;;;;;5130726;27;20035;-82
2023/07/14 08:31:29;;;;;;;6.82;3.00;;;20.80;99.90;;;;;;5099643;27;20078;-82
2023/07/14 08:33:56;;;;;;;5.80;2.60;;;21.00;99.90;;;;;;5097435;27;20548;-82
2023/07/14 08:36:23;;;;;;;5.90;2.53;;;21.10;99.90;;;;;;5088891;27;20470;-82
2023/07/14 08:38:49;;;;;;;6.28;3.00;;;20.90;99.90;;;;;;5096239;27;20102;-82
2023/07/14 08:41:33;;;;;;;6.13;3.30;;;21.20;99.90;;;;;;5106628;27;20026;-82
2023/07/14 08:44:36;;;;;;;4.87;2.40;;;21.30;99.90;;;;;;5082510;28;20131;-83
2023/07/14 08:47:38;;;;;;;5.05;2.60;;;21.60;99.90;;;;;;5101670;27;20499;-82
2023/07/14 08:50:23;;;;;;;5.13;2.50;;;21.50;99.90;;;;;;5076354;28;20469;-82
2023/07/14 08:52:51;;;;;;;4.00;2.28;;;21.10;99.90;;;;;;5082965;28;20125;-82
2023/07/14 08:55:30;;;;;;;5.70;2.35;;;20.80;99.90;;;;;;5085731;28;20397;-83
2023/07/14 08:58:30;;;;;;;4.45;2.30;;;20.50;99.90;;;;;;5107285;27;20464;-83
2023/07/14 09:01:09;;;;;;;4.60;2.30;;;21.20;99.90;;;;;;5060161;28;20197;-82
2023/07/14 09:03:48;;;;;;;4.88;2.22;;;21.40;99.90;;;;;;5083919;28;20334;-82
2023/07/14 09:06:16;;;;;;;4.40;2.45;;;21.40;99.90;;;;;;5108709;28;20032;-81
2023/07/14 09:08:42;;;;;;;2.83;1.90;;;21.70;99.90;;;;;;5082720;28;20348;-82
2023/07/14 09:11:38;;;;;;;3.55;1.77;;;21.70;99.90;;;;;;5085068;27;20038;-81
2023/07/14 09:14:43;;;;;;;3.63;2.35;;;21.60;99.90;;;;;;5110313;27;20039;-82
2023/07/14 09:17:30;;;;;;;3.28;2.40;;;22.20;99.90;;;;;;5089902;27;20093;-82
2023/07/14 09:20:19;;;;;;;5.72;2.33;;;21.80;99.90;;;;;;5109460;27;20043;-82
2023/07/14 09:23:04;;;;;;;2.90;1.70;;;22.10;99.90;;;;;;5100986;27;20126;-82
2023/07/14 09:25:52;;;;;;;5.63;2.20;;;22.50;99.90;;;;;;5111226;27;20494;-83
2023/07/14 09:28:25;;;;;;;3.53;2.13;;;22.60;99.90;;;;;;5111150;27;20539;-82
2023/07/14 09:30:52;;;;;;;4.53;2.05;;;22.40;99.90;;;;;;5107211;27;20044;-82
2023/07/14 09:33:20;;;;;;;3.85;2.05;;;21.70;99.90;;;;;;5095644;27;20498;-82
2023/07/14 09:35:49;;;;;;;3.00;1.88;;;22.00;99.90;;;;;;5090374;27;20112;-82
2023/07/14 09:38:55;;;;;;;3.80;2.08;;;21.90;99.90;;;;;;5105320;27;20036;-82
2023/07/14 09:41:24;;;;;;;5.43;2.17;;;22.40;99.90;;;;;;5108522;27;20369;-83
2023/07/14 09:43:55;;;;;;;2.58;2.08;;;22.70;99.90;;;;;;5100598;27;20048;-82
2023/07/14 09:46:21;;;;;;;5.50;2.22;;;22.50;99.90;;;;;;5086112;27;20043;-82
2023/07/14 09:48:56;;;;;;;3.95;2.00;;;22.40;99.90;;;;;;5109135;27;20066;-82
2023/07/14 09:51:23;;;;;;;3.80;1.92;;;22.60;99.90;;;;;;5108800;27;20165;-82
2023/07/14 09:54:21;;;;;;;4.80;2.30;;;23.10;99.90;;;;;;5097013;27;20359;-83
2023/07/14 09:56:47;;;;;;;3.65;2.05;;;23.60;1.00;;;;;;5060232;27;20184;-83
2023/07/14 09:59:21;;;;;;;5.15;2.08;;;22.70;47.60;;;;;;5107996;27;20519;-82
2023/07/14 10:02:00;;;;;;;7.13;2.20;;;22.20;99.90;;;;;;5083123;28;20035;-82
2023/07/14 10:04:36;;;;;;;4.85;2.78;;;22.10;1.00;;;;;;5107108;27;20047;-83
2023/07/14 10:07:21;;;;;;;3.78;2.13;;;22.90;99.90;;;;;;5101435;27;20043;-82
2023/07/14 10:10:08;;;;;;;3.78;2.25;;;23.40;99.90;;;;;;5118665;27;20489;-82
2023/07/14 10:12:42;;;;;;;4.15;2.30;;;23.40;80.40;;;;;;5110575;27;20039;-82
2023/07/14 10:15:32;;;;;;;4.20;2.20;;;23.30;68.40;;;;;;5098498;27;20040;-82
2023/07/14 10:18:12;;;;;;;5.50;2.50;;;23.20;99.90;;;;;;5095197;27;20032;-83
2023/07/14 10:20:39;;;;;;;4.53;2.55;;;23.50;99.90;;;;;;5087802;28;20396;-83
2023/07/14 10:23:15;;;;;;;3.70;2.15;;;23.60;99.90;;;;;;5079482;28;20123;-82
2023/07/14 10:25:49;;;;;;;10.35;2.80;;;23.40;99.90;;;;;;5089962;27;20051;-83
2023/07/14 10:28:22;;;;;;;5.40;2.47;;;23.90;1.00;;;;;;5111172;27;20485;-83
2023/07/14 10:31:10;;;;;;;5.32;2.75;;;24.00;99.90;;;;;;5100405;27;20027;-82
2023/07/14 10:33:55;;;;;;;4.82;2.60;;;23.40;74.20;;;;;;5100896;27;20048;-83
2023/07/14 10:36:27;;;;;;;4.50;2.47;;;23.80;99.90;;;;;;5112623;27;20042;-83
2023/07/14 10:38:58;;;;;;;4.85;2.90;;;23.90;91.80;;;;;;5097644;27;20039;-83
2023/07/14 10:41:24;;;;;;;5.50;2.58;;;23.70;99.90;;;;;;5100462;27;20047;-83
2023/07/14 10:44:01;;;;;;;4.95;2.70;;;23.80;1.00;;;;;;5128206;27;20058;-83
2023/07/14 10:46:41;;;;;;;4.68;2.53;;;23.60;99.90;;;;;;5099017;27;20118;-83
2023/07/14 10:49:22;;;;;;;4.68;2.53;;;23.40;1.00;;;;;;5094586;27;20046;-83
2023/07/14 10:51:54;;;;;;;5.20;2.63;;;23.40;99.90;;;;;;5112253;27;20421;-83
2023/07/14 10:54:38;;;;;;;3.72;2.30;;;24.30;99.90;;;;;;5122051;27;20404;-83
2023/07/14 10:57:26;;;;;;;5.57;2.45;;;24.90;1.00;;;;;;5103953;27;20393;-83
2023/07/14 10:59:58;;;;;;;4.10;2.70;;;24.70;99.90;;;;;;5089193;27;20118;-84
2023/07/14 11:02:30;;;;;;;7.28;3.42;;;24.10;99.90;;;;;;5106051;27;20336;-83
2023/07/14 11:05:05;;;;;;;6.85;2.80;;;24.40;99.90;;;;;;5108590;27;20035;-83
2023/07/14 11:07:33;;;;;;;4.78;3.00;;;24.30;99.90;;;;;;5114818;27;20130;-83
2023/07/14 11:10:00;;;;;;;5.10;2.85;;;24.80;99.90;;;;;;5100260;27;20223;-83
2023/07/14 11:12:42;;;;;;;4.70;2.80;;;24.10;99.90;;;;;;5105663;27;20054;-83
2023/07/14 11:15:25;;;;;;;4.43;3.00;;;24.20;99.90;;;;;;5089618;27;20051;-82
2023/07/14 11:18:14;;;;;;;5.65;2.80;;;24.80;99.90;;;;;;5115665;27;20048;-83
2023/07/14 11:21:15;;;;;;;5.60;3.03;;;25.20;99.90;;;;;;5109515;27;20042;-83
2023/07/14 11:24:25;;;;;;;3.08;2.30;;;25.20;1.00;;;;;;5080705;27;20188;-83
2023/07/14 11:27:30;;;;;;;4.47;2.30;;;25.90;99.90;;;;;;5105769;27;20088;-83
2023/07/14 11:30:08;;;;;;;5.13;2.40;;;26.10;1.00;;;;;;5105186;27;20090;-83
2023/07/14 11:33:06;;;;;;;4.95;2.80;;;25.60;99.90;;;;;;5093322;27;20046;-83
2023/07/14 11:35:34;;;;;;;5.97;2.63;;;25.20;99.90;;;;;;5098759;27;20108;-83
2023/07/14 11:38:26;;;;;;;5.25;2.40;;;25.30;1.00;;;;;;5104369;27;20063;-83
2023/07/14 11:40:53;;;;;;;4.70;2.40;;;25.10;99.90;;;;;;5107066;27;20039;-83
2023/07/14 11:43:25;;;;;;;5.97;2.88;;;25.30;1.00;;;;;;5088446;27;20904;-83
2023/07/14 11:46:00;;;;;;;3.90;2.40;;;25.40;99.90;;;;;;5091460;27;20035;-82
2023/07/14 11:48:52;;;;;;;2.95;2.33;;;25.20;99.90;;;;;;5110869;27;20447;-83
2023/07/14 11:51:20;;;;;;;3.55;2.50;;;25.20;1.00;;;;;;5100534;27;20055;-83
2023/07/14 11:54:20;;;;;;;4.63;2.55;;;25.90;99.90;;;;;;5100699;27;20059;-83
2023/07/14 11:57:05;;;;;;;4.90;2.60;;;25.20;64.90;;;;;;5099052;27;20510;-83
2023/07/14 11:59:33;;;;;;;2.63;2.30;;;25.30;99.90;;;;;;5099248;27;20152;-83
2023/07/14 12:02:30;;;;;;;5.00;2.85;;;25.10;99.90;;;;;;5103922;27;20040;-83
2023/07/14 12:05:17;;;;;;;3.47;2.53;;;25.20;37.00;;;;;;5101494;27;20079;-83
2023/07/14 12:08:04;;;;;;;6.68;2.83;;;25.40;99.90;;;;;;5120382;27;20035;-83
2023/07/14 12:10:39;;;;;;;3.80;2.50;;;25.40;99.90;;;;;;5101184;27;20333;-83
2023/07/14 12:13:24;;;;;;;5.10;2.55;;;25.90;99.90;;;;;;5107596;27;20273;-83
2023/07/14 12:15:58;;;;;;;4.80;2.80;;;25.40;99.90;;;;;;5100897;27;20047;-83
2023/07/14 12:18:34;;;;;;;3.55;2.50;;;24.80;99.90;;;;;;5100998;27;20398;-83
2023/07/14 12:21:18;;;;;;;6.70;3.00;;;24.80;99.90;;;;;;5110033;27;20103;-83
2023/07/14 12:23:54;;;;;;;4.32;2.88;;;24.60;99.90;;;;;;5102619;27;20137;-83
2023/07/14 12:26:47;;;;;;;5.70;2.67;;;24.20;99.90;;;;;;5088306;27;20547;-83
2023/07/14 12:29:16;;;;;;;6.43;2.92;;;24.30;99.90;;;;;;5108092;27;20038;-83
2023/07/14 12:31:49;;;;;;;4.65;2.70;;;24.10;99.90;;;;;;5112790;27;20726;-83
2023/07/14 12:34:20;;;;;;;4.55;2.70;;;24.10;99.90;;;;;;5125111;27;20035;-83
2023/07/14 12:36:46;;;;;;;5.60;3.10;;;24.50;99.90;;;;;;5093477;27;20041;-83
2023/07/14 12:39:12;;;;;;;5.68;3.05;;;24.40;99.90;;;;;;5109994;27;20031;-83
2023/07/14 12:41:45;;;;;;;5.70;3.03;;;24.90;1.00;;;;;;5097389;27;20359;-83
2023/07/14 12:44:26;;;;;;;4.20;2.85;;;24.80;99.90;;;;;;5101507;27;20131;-83
2023/07/14 12:46:54;;;;;;;5.60;3.03;;;24.60;56.60;;;;;;5101525;27;20054;-83
2023/07/14 12:49:37;;;;;;;5.22;3.17;;;24.30;31.70;;;;;;5103053;27;20278;-82
2023/07/14 12:52:27;;;;;;;5.57;3.50;;;24.00;99.90;;;;;;5089113;27;20497;-83
2023/07/14 12:54:59;;;;;;;4.50;3.00;;;24.50;99.90;;;;;;5089174;27;20046;-83
2023/07/14 12:57:24;;;;;;;5.15;3.03;;;24.80;99.90;;;;;;5116975;27;20406;-83
2023/07/14 12:59:52;;;;;;;4.55;3.13;;;25.40;99.90;;;;;;5122483;27;20035;-83
2023/07/14 13:02:18;;;;;;;6.45;3.40;;;25.50;99.90;;;;;;5086932;27;20063;-83
2023/07/14 13:04:45;;;;;;;5.95;3.33;;;25.50;99.90;;;;;;5118676;27;20229;-83
2023/07/14 13:07:16;;;;;;;6.88;2.90;;;25.10;1.00;;;;;;5112217;27;20129;-83